Terminal Aerodrome Forecast
Issued by NWS

Home | Current Version | Previous Version | Text Only | Print | Product List | Glossary On
Versions: 1 2 3 4 5 6 7 8 9 10 11 12 13 14 15 16 17 18 19 20 21
751
FTUS46 KMFR 191527 AAA
TAFRBG
TAF AMD
KRBG 191527Z 1915/2012 VRB03KT P6SM SCT030 BKN050
     FM191700 17010G16KT P6SM -SHRA OVC020
     FM192100 18011G18KT P6SM -SHRA BKN025 BKN040
     FM200100 VRB03KT P6SM -SHRA BKN035
     FM200600 VRB03KT 4SM -RA BR BKN030 OVC050
     FM201100 16002KT 4SM -RA BR OVC025=

USA.gov is the U.S. government's official web portal to all federal, state and local government web resources and services.